Covered Bridge, Utah
Current Conditions -  °F | °C
As of 9:59 AM on Wednesday 22 Oct 2014 (Local Time) from KPVU Reporting Station
Scattered Clouds Scattered Clouds  
Wind Chill: 40°   Ceiling: Unl
Heat Index: 43°   Visibility: 10mi
Dew Point: 32°   Wind: 5mph
Humidity: 66%   Direction: 120°ESE
Pressure: 30.22"   Gusts: NA
Location:  40.1192°N, 111.689°W
Report Text: KPVU 221559Z 12004KT 10SM SCT140 06/00 A3022
Loading
Personal Weather Stations






























Interactive Weather Map
Tropical Storm Tracking
New forecast layout! Learn more

10-Day Weather Forecast

Advertisements
Track Severe Weather on mobile